^^
Meteo Knjazevac Station Historical Data
Daily Summary for September 7, 2021 Units:  English    Metric   Both
Daily Weekly Monthly Yearly Custom
  High: Low: Average:
Temperature: 56.1 °F 42.4 °F 48.1 °F
Dew Point: 53.8 °F 42.2 °F 47.2 °F
Humidity: 99% 89% 97%
Wind Speed: 6mph 0mph 1.1mph
Wind Gust: 13mph - -
Wind- - SSW
Pressure: 30.35 in 30.11 in -
Precipitation: 0.00 in    
Historical Graphs
 
 
Tabular Data for September 7, 2021
Time Temperature Dew Point Pressure Wind Wind Speed Wind Gust Humidity Rainfall Rate (Hourly) solar Conditions
00:00 46.2 °F 45.7 °F 30.34 in Calm   3 mph 98% 0.00 in 0 W/m2
00:10 46 °F 44.9 °F 30.35 in West 2 mph 3 mph 96% 0.00 in 0 W/m2
00:20 45.8 °F 45.3 °F 30.34 in WNW 2 mph 4 mph 98% 0.00 in 0 W/m2
00:30 45.9 °F 45.3 °F 30.33 in Calm   2 mph 98% 0.00 in 0 W/m2
00:40 45.7 °F 45.1 °F 30.33 in Calm   2 mph 98% 0.00 in 0 W/m2
00:50 45.7 °F 45.1 °F 30.33 in Calm   3 mph 98% 0.00 in 0 W/m2
01:00 45.5 °F 45 °F 30.32 in Calm   2 mph 98% 0.00 in 0 W/m2
01:10 45.5 °F 45 °F 30.33 in WNW 2 mph 4 mph 98% 0.00 in 0 W/m2
01:20 45.3 °F 44.8 °F 30.33 in West 2 mph 3 mph 98% 0.00 in 0 W/m2
01:30 45.3 °F 44.8 °F 30.32 in North 1 mph 2 mph 98% 0.00 in 0 W/m2
01:40 45.3 °F 45.1 °F 30.31 in East 2 mph 5 mph 99% 0.00 in 0 W/m2
01:50 45.3 °F 45.1 °F 30.32 in NNE 1 mph 5 mph 99% 0.00 in 0 W/m2
02:00 45.5 °F 45.2 °F 30.32 in NNW 1 mph 3 mph 99% 0.00 in 0 W/m2
02:10 45.5 °F 45.2 °F 30.32 in WNW 1 mph 2 mph 99% 0.00 in 0 W/m2
02:20 45.3 °F 45.1 °F 30.32 in WNW 2 mph 3 mph 99% 0.00 in 0 W/m2
02:30 45.3 °F 45.1 °F 30.32 in NW 1 mph 5 mph 99% 0.00 in 0 W/m2
02:40 45.5 °F 45.2 °F 30.32 in NNE 2 mph 3 mph 99% 0.00 in 0 W/m2
02:50 45.5 °F 45.2 °F 30.31 in NE 2 mph 5 mph 99% 0.00 in 0 W/m2
03:00 45.5 °F 45.2 °F 30.32 in Calm   5 mph 99% 0.00 in 0 W/m2
03:10 45.5 °F 45.2 °F 30.31 in NNE 2 mph 3 mph 99% 0.00 in 0 W/m2
03:20 45.5 °F 45.2 °F 30.31 in NNE 2 mph 3 mph 99% 0.00 in 0 W/m2
03:30 45.5 °F 45.2 °F 30.32 in NNE 1 mph 2 mph 99% 0.00 in 0 W/m2
03:40 45.3 °F 45.1 °F 30.32 in Calm   2 mph 99% 0.00 in 0 W/m2
03:50 45.3 °F 45.1 °F 30.32 in NNW 1 mph 2 mph 99% 0.00 in 0 W/m2
04:00 45.3 °F 45.1 °F 30.32 in NW 1 mph 3 mph 99% 0.00 in 0 W/m2
04:10 45.3 °F 45.1 °F 30.32 in Calm   2 mph 99% 0.00 in 0 W/m2
04:20 45.3 °F 45.1 °F 30.32 in Calm   2 mph 99% 0.00 in 0 W/m2
04:30 45.1 °F 44.9 °F 30.32 in WSW 1 mph 2 mph 99% 0.00 in 0 W/m2
04:40 45.1 °F 44.9 °F 30.31 in SW 1 mph 3 mph 99% 0.00 in 0 W/m2
04:50 45.1 °F 44.9 °F 30.31 in NW 1 mph 2 mph 99% 0.00 in 0 W/m2
05:00 45.1 °F 44.9 °F 30.30 in NNE 2 mph 3 mph 99% 0.00 in 0 W/m2
05:10 45.1 °F 44.9 °F 30.30 in ENE 1 mph 3 mph 99% 0.00 in 0 W/m2
05:20 45.3 °F 45.1 °F 30.30 in NNW 1 mph 2 mph 99% 0.00 in 0 W/m2
05:30 45.3 °F 45.1 °F 30.30 in North 2 mph 3 mph 99% 0.00 in 0 W/m2
05:40 45.5 °F 45.2 °F 30.29 in North 1 mph 4 mph 99% 0.00 in 0 W/m2
05:50 45.7 °F 45.4 °F 30.29 in Calm   2 mph 99% 0.00 in 0 W/m2
06:00 45.9 °F 45.6 °F 30.29 in Calm   4 mph 99% 0.00 in 0 W/m2
06:10 45.7 °F 45.4 °F 30.29 in Calm   3 mph 99% 0.00 in 0 W/m2
06:20 45.7 °F 45.4 °F 30.30 in North 1 mph 3 mph 99% 0.00 in 1 W/m2
06:30 45.9 °F 45.6 °F 30.30 in Calm   5 mph 99% 0.00 in 5 W/m2
06:40 45.9 °F 45.6 °F 30.30 in NNE 2 mph 4 mph 99% 0.00 in 10 W/m2
06:50 45.9 °F 45.6 °F 30.30 in Calm   2 mph 99% 0.00 in 22 W/m2
07:00 45.9 °F 45.6 °F 30.30 in North 1 mph 3 mph 99% 0.00 in 24 W/m2
07:10 45.9 °F 45.6 °F 30.30 in Calm   2 mph 99% 0.00 in 20 W/m2
07:20 45.9 °F 45.6 °F 30.30 in Calm   2 mph 99% 0.00 in 24 W/m2
07:30 46 °F 45.8 °F 30.30 in Calm   2 mph 99% 0.00 in 26 W/m2
07:40 46.2 °F 46 °F 30.29 in East 2 mph 3 mph 99% 0.00 in 37 W/m2
07:50 46.3 °F 46 °F 30.30 in Calm   2 mph 99% 0.00 in 39 W/m2
08:00 46.6 °F 46.3 °F 30.30 in WNW 1 mph 2 mph 99% 0.00 in 47 W/m2
08:10 46.8 °F 46.5 °F 30.30 in Calm   4 mph 99% 0.00 in 49 W/m2
08:20 46.8 °F 46.5 °F 30.30 in NNW 1 mph 2 mph 99% 0.00 in 51 W/m2
08:30 47.1 °F 46.9 °F 30.30 in NNE 2 mph 4 mph 99% 0.00 in 74 W/m2
08:40 47.5 °F 47.2 °F 30.29 in Calm   5 mph 99% 0.00 in 95 W/m2
08:50 47.7 °F 47.4 °F 30.29 in Calm   4 mph 99% 0.00 in 95 W/m2
09:00 48 °F 47.8 °F 30.29 in North 1 mph 3 mph 99% 0.00 in 113 W/m2
09:10 48.4 °F 48.1 °F 30.28 in NW 2 mph 3 mph 99% 0.00 in 151 W/m2
09:20 48.9 °F 48.7 °F 30.28 in West 1 mph 2 mph 99% 0.00 in 144 W/m2
09:30 49.3 °F 48.7 °F 30.28 in SSW 2 mph 3 mph 98% 0.00 in 154 W/m2
09:40 49.6 °F 49.1 °F 30.28 in NNE 2 mph 3 mph 98% 0.00 in 146 W/m2
09:50 49.8 °F 49.3 °F 30.28 in SSW 1 mph 2 mph 98% 0.00 in 155 W/m2
10:00 50.2 °F 49.6 °F 30.28 in South 2 mph 3 mph 98% 0.00 in 179 W/m2
10:10 50.5 °F 49.4 °F 30.27 in SW 1 mph 3 mph 96% 0.00 in 152 W/m2
10:20 50.7 °F 49.6 °F 30.27 in SSW 1 mph 3 mph 96% 0.00 in 135 W/m2
10:30 51.1 °F 50 °F 30.27 in WSW 1 mph 2 mph 96% 0.00 in 117 W/m2
10:40 51.3 °F 49.9 °F 30.27 in WSW 2 mph 4 mph 95% 0.00 in 117 W/m2
10:50 51.5 °F 50.1 °F 30.27 in SW 3 mph 6 mph 95% 0.00 in 114 W/m2
11:00 51.8 °F 50.4 °F 30.25 in WSW 2 mph 3 mph 95% 0.00 in 197 W/m2
11:10 52.3 °F 51 °F 30.25 in South 2 mph 4 mph 95% 0.00 in 185 W/m2
11:20 52.8 °F 51.4 °F 30.24 in South 1 mph 5 mph 95% 0.00 in 156 W/m2
11:30 53.2 °F 51.8 °F 30.24 in ESE 6 mph 8 mph 95% 0.00 in 186 W/m2
11:40 53.8 °F 52.7 °F 30.23 in Calm   8 mph 96% 0.00 in 259 W/m2
11:50 54.4 °F 53 °F 30.23 in North 3 mph 9 mph 95% 0.00 in 211 W/m2
12:00 54.9 °F 53.2 °F 30.23 in NNE 5 mph 9 mph 94% 0.00 in 284 W/m2
12:10 55.2 °F 53.5 °F 30.23 in North 3 mph 9 mph 94% 0.00 in 196 W/m2
12:20 55.4 °F 53.7 °F 30.24 in NNE 2 mph 9 mph 94% 0.00 in 153 W/m2
12:30 55.6 °F 53.7 °F 30.24 in NNE 3 mph 10 mph 93% 0.00 in 233 W/m2
12:40 55.8 °F 53.8 °F 30.23 in North 1 mph 13 mph 93% 0.00 in 120 W/m2
12:50 55.4 °F 52.8 °F 30.22 in North 3 mph 10 mph 91% 0.00 in 164 W/m2
13:40 55 °F 52.5 °F 30.21 in North 5 mph 9 mph 91% 0.00 in 176 W/m2
13:50 55.4 °F 52.8 °F 30.20 in North 3 mph 6 mph 91% 0.00 in 183 W/m2
14:00 55.6 °F 53 °F 30.21 in North 3 mph 6 mph 91% 0.00 in 169 W/m2
14:10 55.8 °F 53.2 °F 30.20 in NNE 2 mph 6 mph 91% 0.00 in 185 W/m2
14:20 56.1 °F 53.2 °F 30.20 in North 5 mph 8 mph 90% 0.00 in 174 W/m2
14:30 56.1 °F 53.2 °F 30.20 in NNE 3 mph 6 mph 90% 0.00 in 76 W/m2
14:40 55.9 °F 52.7 °F 30.20 in North 2 mph 7 mph 89% 0.00 in 134 W/m2
14:50 55.9 °F 52.7 °F 30.20 in North 2 mph 7 mph 89% 0.00 in 85 W/m2
15:00 55.8 °F 52.6 °F 30.20 in North 5 mph 8 mph 89% 0.00 in 49 W/m2
15:10 55.4 °F 52.2 °F 30.20 in North 3 mph 5 mph 89% 0.00 in 44 W/m2
15:20 55 °F 51.9 °F 30.19 in North 1 mph 6 mph 89% 0.00 in 40 W/m2
15:30 54.9 °F 51.7 °F 30.19 in North 2 mph 6 mph 89% 0.00 in 42 W/m2
15:40 54.5 °F 51.6 °F 30.19 in NNW 1 mph 5 mph 90% 0.00 in 28 W/m2
15:50 54.3 °F 51.4 °F 30.19 in Calm   2 mph 90% 0.00 in 19 W/m2
16:00 54.1 °F 51.2 °F 30.19 in Calm   2 mph 90% 0.00 in 11 W/m2
16:10 53.6 °F 50.7 °F 30.19 in Calm   2 mph 90% 0.00 in 6 W/m2
16:20 53.1 °F 50.2 °F 30.18 in Calm   2 mph 90% 0.00 in 0 W/m2
16:30 52.4 °F 49.9 °F 30.18 in Calm   1 mph 91% 0.00 in 0 W/m2
16:40 52 °F 49.7 °F 30.18 in South 1 mph 1 mph 92% 0.00 in 0 W/m2
16:50 51.6 °F 49.7 °F 30.18 in Calm   2 mph 93% 0.00 in 0 W/m2
17:00 51.2 °F 49.2 °F 30.18 in SW 1 mph 2 mph 93% 0.00 in 0 W/m2
17:10 50.7 °F 49.1 °F 30.18 in Calm   2 mph 94% 0.00 in 0 W/m2
17:20 50.4 °F 48.7 °F 30.18 in WNW 1 mph 3 mph 94% 0.00 in 0 W/m2
17:30 50.1 °F 48.7 °F 30.18 in Calm   2 mph 95% 0.00 in 0 W/m2
17:40 49.6 °F 48.3 °F 30.18 in Calm   2 mph 95% 0.00 in 0 W/m2
17:50 49.5 °F 48.1 °F 30.18 in Calm   2 mph 95% 0.00 in 0 W/m2
18:00 49.1 °F 47.7 °F 30.19 in Calm   2 mph 95% 0.00 in 0 W/m2
18:10 48.7 °F 47.7 °F 30.18 in Calm   2 mph 96% 0.00 in 0 W/m2
18:20 48.4 °F 47.3 °F 30.18 in WSW 1 mph 3 mph 96% 0.00 in 0 W/m2
18:30 48 °F 46.9 °F 30.17 in WNW 1 mph 2 mph 96% 0.00 in 0 W/m2
18:40 47.8 °F 46.7 °F 30.17 in SSW 1 mph 3 mph 96% 0.00 in 0 W/m2
18:50 47.5 °F 46.9 °F 30.18 in WSW 1 mph 3 mph 98% 0.00 in 0 W/m2
19:00 47.2 °F 46.7 °F 30.17 in WNW 2 mph 4 mph 98% 0.00 in 0 W/m2
19:10 47.1 °F 46.6 °F 30.17 in NNW 1 mph 3 mph 98% 0.00 in 0 W/m2
19:20 46.8 °F 46.2 °F 30.17 in Calm   2 mph 98% 0.00 in 0 W/m2
19:30 46.4 °F 45.9 °F 30.17 in Calm   2 mph 98% 0.00 in 0 W/m2
19:40 46.1 °F 45.6 °F 30.17 in Calm   1 mph 98% 0.00 in 0 W/m2
19:50 45.9 °F 45.3 °F 30.17 in Calm     98% 0.00 in 0 W/m2
20:00 45.6 °F 45.1 °F 30.17 in Calm   2 mph 98% 0.00 in 0 W/m2
20:10 45.3 °F 44.8 °F 30.16 in NW 1 mph 2 mph 98% 0.00 in 0 W/m2
20:20 45.1 °F 44.6 °F 30.16 in Calm   2 mph 98% 0.00 in 0 W/m2
20:30 45.1 °F 44.8 °F 30.16 in NNW 1 mph 2 mph 99% 0.00 in 0 W/m2
20:40 45 °F 44.7 °F 30.16 in Calm   2 mph 99% 0.00 in 0 W/m2
20:50 44.6 °F 44.3 °F 30.16 in Calm   1 mph 99% 0.00 in 0 W/m2
21:00 44.4 °F 44.2 °F 30.15 in Calm   2 mph 99% 0.00 in 0 W/m2
21:10 44.2 °F 44 °F 30.15 in NW 1 mph 3 mph 99% 0.00 in 0 W/m2
21:20 44.2 °F 44 °F 30.14 in West 1 mph 3 mph 99% 0.00 in 0 W/m2
21:30 44.2 °F 44 °F 30.14 in Calm   2 mph 99% 0.00 in 0 W/m2
21:40 44 °F 43.7 °F 30.14 in NW 1 mph 2 mph 99% 0.00 in 0 W/m2
21:50 43.7 °F 43.4 °F 30.14 in Calm   3 mph 99% 0.00 in 0 W/m2
22:00 43.5 °F 43.3 °F 30.14 in Calm   1 mph 99% 0.00 in 0 W/m2
22:10 43.3 °F 43.1 °F 30.13 in Calm   2 mph 99% 0.00 in 0 W/m2
22:20 43.2 °F 42.9 °F 30.13 in Calm   2 mph 99% 0.00 in 0 W/m2
22:40 43.3 °F 43.1 °F 30.12 in Calm     99% 0.00 in 0 W/m2
22:50 43.2 °F 42.9 °F 30.12 in WNW 1 mph 2 mph 99% 0.00 in 0 W/m2
23:00 43.2 °F 42.9 °F 30.12 in NNW 1 mph 2 mph 99% 0.00 in 0 W/m2
23:10 43.2 °F 42.9 °F 30.12 in NNW 2 mph 3 mph 99% 0.00 in 0 W/m2
23:20 43.2 °F 42.9 °F 30.12 in Calm   3 mph 99% 0.00 in 0 W/m2
23:30 43.2 °F 42.9 °F 30.11 in Calm     99% 0.00 in 0 W/m2
23:40 42.8 °F 42.5 °F 30.11 in Calm   1 mph 99% 0.00 in 0 W/m2
23:50 42.4 °F 42.2 °F 30.11 in NNE 3 mph 6 mph 99% 0.00 in 0 W/m2
Knjazevac, Serbia
Compliments of Weather Underground - 2 mb